Airfield :
LOGIN :

Register | Disclaimer

   EN    FR    IT 

 










Legend :    VFR   Marginal VFR   IFR   Intensive IFR   Very Intensive IFR
Visi :
Ceiling :
>= 8 km
>= 3000ft
5 to 8 km
1000 to 3000 ft
1500m to 5 km
500 to 1000 ft
800 to 1500m
200 to 500 ft
< 800m
< 200 ft
Symbols :   Thunderstorms  Fog  Heavy snow  Heavy precipitations  Wind > 20 kt
SIGMETs :     Misc.  Thunderstorms  Icing  Turbulence  Mountain Waves  Volcanic Ashes






- Airport Elevation : 80 ft
- IATA code : LPL


EGGP - Liverpool John Lennon

CURRENT METAR :
  • 180550Z 34004KT CAVOK 03/03 Q1018

EXPIRED METARs :
  • 180520Z 35003KT CAVOK 04/03 Q1018
  • 180450Z 36004KT CAVOK 04/03 Q1018
  • 180420Z 36005KT CAVOK 04/03 Q1017
  • 180350Z 36006KT 9999 FEW040 05/03 Q1017
  • 180320Z 36005KT 9999 FEW040 05/04 Q1017

TAF TAF EGGP
Valid from the 18 at 06:00 until the 19 at 06:00 UTC


180501Z 1806/1906 34005KT 9999 FEW040
PROB30 1806/1810 6000
BECMG 1817/1820 3000 BR
PROB30
TEMPO 1900/1906 0300 FG FZFG BKN001
ATIS : +44 151 907 2000 (option 5 or ext 5150)
Met : +44 871 750 5150



MET'MAP, your aeronautical weather chart ! - Copyright ORBIFLY December 2007 - Disclaimer

ORBIFLY MET'MAP TEAM :

Programming & Development : Alexandra Zaïnal
Concept & Development : Baudouin d'Aumeries
Co-Development & Prog : Marc-Olivier Méhu
Technical & hardware support : Manuel Goepfert

Contact : metmap@orbifly.com




SOURCES & CREDITS :

   NOAA